sensor_id;sensor_type;location;lat;lon;timestamp;P1;durP1;ratioP1;P2;durP2;ratioP2
58528;SDS011;44322;52.968;5.816;2023-09-08T00:01:24;10.73;;;9.43;;
58528;SDS011;44322;52.968;5.816;2023-09-08T00:03:50;11.18;;;9.85;;
58528;SDS011;44322;52.968;5.816;2023-09-08T00:06:15;11.40;;;10.23;;
58528;SDS011;44322;52.968;5.816;2023-09-08T00:08:41;12.25;;;10.77;;
58528;SDS011;44322;52.968;5.816;2023-09-08T00:11:11;13.63;;;10.20;;
58528;SDS011;44322;52.968;5.816;2023-09-08T00:13:36;11.43;;;9.70;;
58528;SDS011;44322;52.968;5.816;2023-09-08T00:16:02;11.77;;;10.65;;
58528;SDS011;44322;52.968;5.816;2023-09-08T00:18:28;11.18;;;10.00;;
58528;SDS011;44322;52.968;5.816;2023-09-08T00:20:53;12.00;;;10.43;;
58528;SDS011;44322;52.968;5.816;2023-09-08T00:23:19;10.55;;;9.50;;
58528;SDS011;44322;52.968;5.816;2023-09-08T00:25:44;11.52;;;9.80;;
58528;SDS011;44322;52.968;5.816;2023-09-08T00:28:10;11.32;;;10.02;;
58528;SDS011;44322;52.968;5.816;2023-09-08T00:30:35;11.57;;;10.38;;
58528;SDS011;44322;52.968;5.816;2023-09-08T00:33:01;13.25;;;11.07;;
58528;SDS011;44322;52.968;5.816;2023-09-08T00:35:27;14.50;;;10.40;;
58528;SDS011;44322;52.968;5.816;2023-09-08T00:37:53;9.55;;;8.65;;
58528;SDS011;44322;52.968;5.816;2023-09-08T00:40:18;12.02;;;10.30;;
58528;SDS011;44322;52.968;5.816;2023-09-08T00:42:44;12.20;;;10.90;;
58528;SDS011;44322;52.968;5.816;2023-09-08T00:45:10;12.60;;;10.25;;
58528;SDS011;44322;52.968;5.816;2023-09-08T00:47:35;12.35;;;10.40;;
58528;SDS011;44322;52.968;5.816;2023-09-08T00:50:04;13.90;;;10.68;;
58528;SDS011;44322;52.968;5.816;2023-09-08T00:52:31;10.95;;;9.95;;
58528;SDS011;44322;52.968;5.816;2023-09-08T00:55:00;11.73;;;10.63;;
58528;SDS011;44322;52.968;5.816;2023-09-08T00:57:26;11.38;;;10.18;;
58528;SDS011;44322;52.968;5.816;2023-09-08T00:59:53;11.82;;;10.27;;
58528;SDS011;44322;52.968;5.816;2023-09-08T01:02:19;11.52;;;10.43;;
58528;SDS011;44322;52.968;5.816;2023-09-08T01:04:45;9.83;;;8.93;;
58528;SDS011;44322;52.968;5.816;2023-09-08T01:07:11;12.32;;;11.13;;
58528;SDS011;44322;52.968;5.816;2023-09-08T01:09:38;11.85;;;10.52;;
58528;SDS011;44322;52.968;5.816;2023-09-08T01:12:06;11.85;;;10.65;;
58528;SDS011;44322;52.968;5.816;2023-09-08T01:14:32;10.15;;;9.07;;
58528;SDS011;44322;52.968;5.816;2023-09-08T01:16:58;11.45;;;10.38;;
58528;SDS011;44322;52.968;5.816;2023-09-08T01:19:23;11.50;;;10.30;;
58528;SDS011;44322;52.968;5.816;2023-09-08T01:21:58;11.65;;;10.52;;
58528;SDS011;44322;52.968;5.816;2023-09-08T01:24:39;11.88;;;10.65;;
58528;SDS011;44322;52.968;5.816;2023-09-08T01:27:28;11.93;;;10.73;;
58528;SDS011;44322;52.968;5.816;2023-09-08T01:29:54;12.15;;;11.05;;
58528;SDS011;44322;52.968;5.816;2023-09-08T01:32:20;11.77;;;10.63;;
58528;SDS011;44322;52.968;5.816;2023-09-08T01:34:46;12.40;;;10.82;;
58528;SDS011;44322;52.968;5.816;2023-09-08T01:37:12;13.27;;;11.85;;
58528;SDS011;44322;52.968;5.816;2023-09-08T01:39:37;12.55;;;11.15;;
58528;SDS011;44322;52.968;5.816;2023-09-08T01:42:03;9.98;;;8.88;;
58528;SDS011;44322;52.968;5.816;2023-09-08T01:44:28;11.38;;;10.20;;
58528;SDS011;44322;52.968;5.816;2023-09-08T01:46:54;11.43;;;9.63;;
58528;SDS011;44322;52.968;5.816;2023-09-08T01:49:22;10.65;;;9.55;;
58528;SDS011;44322;52.968;5.816;2023-09-08T01:51:48;11.77;;;10.57;;
58528;SDS011;44322;52.968;5.816;2023-09-08T01:54:14;11.80;;;10.80;;
58528;SDS011;44322;52.968;5.816;2023-09-08T01:56:39;12.20;;;10.90;;
58528;SDS011;44322;52.968;5.816;2023-09-08T01:59:06;12.18;;;10.95;;
58528;SDS011;44322;52.968;5.816;2023-09-08T02:01:31;11.23;;;10.23;;
58528;SDS011;44322;52.968;5.816;2023-09-08T02:03:57;12.57;;;11.38;;
58528;SDS011;44322;52.968;5.816;2023-09-08T02:06:23;12.68;;;11.48;;
58528;SDS011;44322;52.968;5.816;2023-09-08T02:08:49;14.23;;;11.82;;
58528;SDS011;44322;52.968;5.816;2023-09-08T02:11:15;11.93;;;10.73;;
58528;SDS011;44322;52.968;5.816;2023-09-08T02:13:43;12.60;;;11.18;;
58528;SDS011;44322;52.968;5.816;2023-09-08T02:16:13;12.30;;;11.13;;
58528;SDS011;44322;52.968;5.816;2023-09-08T02:18:40;14.05;;;11.30;;
58528;SDS011;44322;52.968;5.816;2023-09-08T02:21:07;10.90;;;9.70;;
58528;SDS011;44322;52.968;5.816;2023-09-08T02:23:32;12.10;;;10.90;;
58528;SDS011;44322;52.968;5.816;2023-09-08T02:25:58;14.13;;;12.73;;
58528;SDS011;44322;52.968;5.816;2023-09-08T02:28:24;12.15;;;10.80;;
58528;SDS011;44322;52.968;5.816;2023-09-08T02:30:51;13.25;;;11.88;;
58528;SDS011;44322;52.968;5.816;2023-09-08T02:33:16;11.90;;;10.68;;
58528;SDS011;44322;52.968;5.816;2023-09-08T02:35:42;13.35;;;11.68;;
58528;SDS011;44322;52.968;5.816;2023-09-08T02:38:09;12.77;;;10.70;;
58528;SDS011;44322;52.968;5.816;2023-09-08T02:40:35;12.30;;;10.82;;
58528;SDS011;44322;52.968;5.816;2023-09-08T02:43:02;13.25;;;11.90;;
58528;SDS011;44322;52.968;5.816;2023-09-08T02:45:28;13.07;;;11.65;;
58528;SDS011;44322;52.968;5.816;2023-09-08T02:47:54;13.52;;;12.13;;
58528;SDS011;44322;52.968;5.816;2023-09-08T02:50:21;13.32;;;11.55;;
58528;SDS011;44322;52.968;5.816;2023-09-08T02:52:47;12.00;;;10.80;;
58528;SDS011;44322;52.968;5.816;2023-09-08T02:55:13;13.32;;;12.02;;
58528;SDS011;44322;52.968;5.816;2023-09-08T02:57:39;13.60;;;12.23;;
58528;SDS011;44322;52.968;5.816;2023-09-08T03:00:06;11.93;;;10.77;;
58528;SDS011;44322;52.968;5.816;2023-09-08T03:02:33;11.23;;;10.05;;
58528;SDS011;44322;52.968;5.816;2023-09-08T03:04:59;15.02;;;13.30;;
58528;SDS011;44322;52.968;5.816;2023-09-08T03:07:29;13.45;;;12.13;;
58528;SDS011;44322;52.968;5.816;2023-09-08T03:09:55;13.55;;;12.20;;
58528;SDS011;44322;52.968;5.816;2023-09-08T03:12:21;14.50;;;12.60;;
58528;SDS011;44322;52.968;5.816;2023-09-08T03:14:46;12.85;;;11.52;;
58528;SDS011;44322;52.968;5.816;2023-09-08T03:17:12;12.70;;;11.50;;
58528;SDS011;44322;52.968;5.816;2023-09-08T03:19:38;13.57;;;12.27;;
58528;SDS011;44322;52.968;5.816;2023-09-08T03:22:05;15.82;;;12.43;;
58528;SDS011;44322;52.968;5.816;2023-09-08T03:24:31;13.75;;;11.90;;
58528;SDS011;44322;52.968;5.816;2023-09-08T03:26:56;13.82;;;12.48;;
58528;SDS011;44322;52.968;5.816;2023-09-08T03:29:23;15.18;;;13.02;;
58528;SDS011;44322;52.968;5.816;2023-09-08T03:31:49;13.48;;;12.20;;
58528;SDS011;44322;52.968;5.816;2023-09-08T03:34:15;14.27;;;12.88;;
58528;SDS011;44322;52.968;5.816;2023-09-08T03:36:41;14.95;;;13.45;;
58528;SDS011;44322;52.968;5.816;2023-09-08T03:39:07;14.75;;;13.10;;
58528;SDS011;44322;52.968;5.816;2023-09-08T03:41:34;12.73;;;11.50;;
58528;SDS011;44322;52.968;5.816;2023-09-08T03:44:00;13.25;;;10.45;;
58528;SDS011;44322;52.968;5.816;2023-09-08T03:46:25;13.75;;;12.30;;
58528;SDS011;44322;52.968;5.816;2023-09-08T03:48:51;14.60;;;13.10;;
58528;SDS011;44322;52.968;5.816;2023-09-08T03:51:19;15.80;;;14.10;;
58528;SDS011;44322;52.968;5.816;2023-09-08T03:53:45;13.30;;;12.00;;
58528;SDS011;44322;52.968;5.816;2023-09-08T03:56:11;13.10;;;11.75;;
58528;SDS011;44322;52.968;5.816;2023-09-08T03:58:37;14.13;;;12.73;;
58528;SDS011;44322;52.968;5.816;2023-09-08T04:01:03;17.30;;;13.70;;
58528;SDS011;44322;52.968;5.816;2023-09-08T04:03:29;13.38;;;11.98;;
58528;SDS011;44322;52.968;5.816;2023-09-08T04:05:54;15.20;;;13.60;;
58528;SDS011;44322;52.968;5.816;2023-09-08T04:08:20;15.07;;;13.50;;
58528;SDS011;44322;52.968;5.816;2023-09-08T04:10:46;17.05;;;14.13;;
58528;SDS011;44322;52.968;5.816;2023-09-08T04:13:11;15.68;;;14.07;;
58528;SDS011;44322;52.968;5.816;2023-09-08T04:15:37;16.33;;;14.63;;
58528;SDS011;44322;52.968;5.816;2023-09-08T04:18:03;15.30;;;13.65;;
58528;SDS011;44322;52.968;5.816;2023-09-08T04:20:29;13.88;;;12.50;;
58528;SDS011;44322;52.968;5.816;2023-09-08T04:22:54;16.13;;;13.10;;
58528;SDS011;44322;52.968;5.816;2023-09-08T04:25:21;15.48;;;13.93;;
58528;SDS011;44322;52.968;5.816;2023-09-08T04:27:46;16.55;;;14.27;;
58528;SDS011;44322;52.968;5.816;2023-09-08T04:30:12;16.67;;;14.43;;
58528;SDS011;44322;52.968;5.816;2023-09-08T04:32:38;15.85;;;14.25;;
58528;SDS011;44322;52.968;5.816;2023-09-08T04:35:04;16.63;;;14.73;;
58528;SDS011;44322;52.968;5.816;2023-09-08T04:37:30;16.23;;;14.52;;
58528;SDS011;44322;52.968;5.816;2023-09-08T04:39:56;14.98;;;13.57;;
58528;SDS011;44322;52.968;5.816;2023-09-08T04:42:22;17.42;;;15.73;;
58528;SDS011;44322;52.968;5.816;2023-09-08T04:44:48;17.45;;;15.75;;
58528;SDS011;44322;52.968;5.816;2023-09-08T04:47:14;14.52;;;13.05;;
58528;SDS011;44322;52.968;5.816;2023-09-08T04:49:40;16.55;;;14.90;;
58528;SDS011;44322;52.968;5.816;2023-09-08T04:52:05;16.75;;;14.32;;
58528;SDS011;44322;52.968;5.816;2023-09-08T04:54:32;17.60;;;15.70;;
58528;SDS011;44322;52.968;5.816;2023-09-08T04:56:58;14.60;;;13.10;;
58528;SDS011;44322;52.968;5.816;2023-09-08T04:59:24;16.27;;;14.63;;
58528;SDS011;44322;52.968;5.816;2023-09-08T05:04:17;17.45;;;15.63;;
58528;SDS011;44322;52.968;5.816;2023-09-08T05:06:44;13.68;;;12.27;;
58528;SDS011;44322;52.968;5.816;2023-09-08T05:09:10;16.27;;;14.52;;
58528;SDS011;44322;52.968;5.816;2023-09-08T05:11:36;17.55;;;15.55;;
58528;SDS011;44322;52.968;5.816;2023-09-08T05:14:02;16.33;;;14.63;;
58528;SDS011;44322;52.968;5.816;2023-09-08T05:16:28;15.75;;;14.10;;
58528;SDS011;44322;52.968;5.816;2023-09-08T05:19:13;16.77;;;13.90;;
58528;SDS011;44322;52.968;5.816;2023-09-08T05:21:39;17.00;;;15.30;;
58528;SDS011;44322;52.968;5.816;2023-09-08T05:24:06;16.65;;;14.82;;
58528;SDS011;44322;52.968;5.816;2023-09-08T05:26:32;14.35;;;12.85;;
58528;SDS011;44322;52.968;5.816;2023-09-08T05:28:57;16.50;;;14.77;;
58528;SDS011;44322;52.968;5.816;2023-09-08T05:31:23;16.30;;;14.60;;
58528;SDS011;44322;52.968;5.816;2023-09-08T05:33:49;17.38;;;15.57;;
58528;SDS011;44322;52.968;5.816;2023-09-08T05:36:15;16.42;;;14.65;;
58528;SDS011;44322;52.968;5.816;2023-09-08T05:38:41;14.82;;;13.23;;
58528;SDS011;44322;52.968;5.816;2023-09-08T05:41:06;17.42;;;15.52;;
58528;SDS011;44322;52.968;5.816;2023-09-08T05:43:32;15.73;;;13.85;;
58528;SDS011;44322;52.968;5.816;2023-09-08T05:45:58;15.70;;;14.10;;
58528;SDS011;44322;52.968;5.816;2023-09-08T05:48:24;17.85;;;15.23;;
58528;SDS011;44322;52.968;5.816;2023-09-08T05:50:49;19.40;;;14.95;;
58528;SDS011;44322;52.968;5.816;2023-09-08T05:53:15;17.45;;;14.75;;
58528;SDS011;44322;52.968;5.816;2023-09-08T05:55:41;17.17;;;15.38;;
58528;SDS011;44322;52.968;5.816;2023-09-08T05:58:07;15.80;;;14.23;;
58528;SDS011;44322;52.968;5.816;2023-09-08T06:00:33;17.67;;;15.85;;
58528;SDS011;44322;52.968;5.816;2023-09-08T06:03:00;16.30;;;14.57;;
58528;SDS011;44322;52.968;5.816;2023-09-08T06:05:25;15.93;;;14.32;;
58528;SDS011;44322;52.968;5.816;2023-09-08T06:07:51;17.75;;;15.45;;
58528;SDS011;44322;52.968;5.816;2023-09-08T06:10:17;17.73;;;14.85;;
58528;SDS011;44322;52.968;5.816;2023-09-08T06:12:42;16.85;;;15.10;;
58528;SDS011;44322;52.968;5.816;2023-09-08T06:15:09;16.20;;;14.60;;
58528;SDS011;44322;52.968;5.816;2023-09-08T06:17:35;17.35;;;15.55;;
58528;SDS011;44322;52.968;5.816;2023-09-08T06:20:01;18.10;;;15.63;;
58528;SDS011;44322;52.968;5.816;2023-09-08T06:22:27;15.90;;;14.27;;
58528;SDS011;44322;52.968;5.816;2023-09-08T06:24:52;16.42;;;14.57;;
58528;SDS011;44322;52.968;5.816;2023-09-08T06:27:18;16.08;;;14.50;;
58528;SDS011;44322;52.968;5.816;2023-09-08T06:29:44;15.63;;;14.02;;
58528;SDS011;44322;52.968;5.816;2023-09-08T06:32:11;18.70;;;16.02;;
58528;SDS011;44322;52.968;5.816;2023-09-08T06:34:40;16.38;;;12.82;;
58528;SDS011;44322;52.968;5.816;2023-09-08T06:37:06;19.25;;;15.23;;
58528;SDS011;44322;52.968;5.816;2023-09-08T06:39:33;17.77;;;14.73;;
58528;SDS011;44322;52.968;5.816;2023-09-08T06:42:00;16.02;;;14.38;;
58528;SDS011;44322;52.968;5.816;2023-09-08T06:44:26;15.70;;;12.45;;
58528;SDS011;44322;52.968;5.816;2023-09-08T06:46:51;16.98;;;15.25;;
58528;SDS011;44322;52.968;5.816;2023-09-08T06:49:18;17.83;;;16.00;;
58528;SDS011;44322;52.968;5.816;2023-09-08T06:51:43;18.48;;;14.90;;
58528;SDS011;44322;52.968;5.816;2023-09-08T06:54:09;17.63;;;14.20;;
58528;SDS011;44322;52.968;5.816;2023-09-08T06:56:38;17.88;;;15.68;;
58528;SDS011;44322;52.968;5.816;2023-09-08T06:59:05;17.58;;;14.55;;
58528;SDS011;44322;52.968;5.816;2023-09-08T07:01:31;17.30;;;15.18;;
58528;SDS011;44322;52.968;5.816;2023-09-08T07:03:56;16.30;;;14.60;;
58528;SDS011;44322;52.968;5.816;2023-09-08T07:06:22;15.35;;;13.85;;
58528;SDS011;44322;52.968;5.816;2023-09-08T07:08:49;15.73;;;14.15;;
58528;SDS011;44322;52.968;5.816;2023-09-08T07:11:19;15.05;;;13.45;;
58528;SDS011;44322;52.968;5.816;2023-09-08T07:13:45;16.83;;;15.02;;
58528;SDS011;44322;52.968;5.816;2023-09-08T07:16:12;14.75;;;13.23;;
58528;SDS011;44322;52.968;5.816;2023-09-08T07:18:38;14.80;;;13.30;;
58528;SDS011;44322;52.968;5.816;2023-09-08T07:21:06;16.15;;;14.07;;
58528;SDS011;44322;52.968;5.816;2023-09-08T07:23:32;18.52;;;15.10;;
58528;SDS011;44322;52.968;5.816;2023-09-08T07:25:58;17.55;;;14.70;;
58528;SDS011;44322;52.968;5.816;2023-09-08T07:28:28;19.60;;;15.50;;
58528;SDS011;44322;52.968;5.816;2023-09-08T07:31:03;18.25;;;16.35;;
58528;SDS011;44322;52.968;5.816;2023-09-08T07:33:30;18.40;;;15.80;;
58528;SDS011;44322;52.968;5.816;2023-09-08T07:36:02;16.80;;;14.95;;
58528;SDS011;44322;52.968;5.816;2023-09-08T07:38:31;20.40;;;16.73;;
58528;SDS011;44322;52.968;5.816;2023-09-08T07:40:59;19.90;;;17.23;;
58528;SDS011;44322;52.968;5.816;2023-09-08T07:43:28;21.48;;;18.15;;
58528;SDS011;44322;52.968;5.816;2023-09-08T07:45:54;20.80;;;17.10;;
58528;SDS011;44322;52.968;5.816;2023-09-08T07:48:20;21.35;;;18.98;;
58528;SDS011;44322;52.968;5.816;2023-09-08T07:50:45;24.00;;;19.40;;
58528;SDS011;44322;52.968;5.816;2023-09-08T07:53:11;23.90;;;19.90;;
58528;SDS011;44322;52.968;5.816;2023-09-08T07:55:37;24.92;;;21.23;;
58528;SDS011;44322;52.968;5.816;2023-09-08T07:58:02;24.63;;;20.08;;
58528;SDS011;44322;52.968;5.816;2023-09-08T08:00:31;26.17;;;20.40;;
58528;SDS011;44322;52.968;5.816;2023-09-08T08:02:57;27.90;;;21.30;;
58528;SDS011;44322;52.968;5.816;2023-09-08T08:05:23;24.08;;;21.05;;
58528;SDS011;44322;52.968;5.816;2023-09-08T08:07:50;30.40;;;22.65;;
58528;SDS011;44322;52.968;5.816;2023-09-08T08:10:16;30.73;;;22.85;;
58528;SDS011;44322;52.968;5.816;2023-09-08T08:12:42;28.35;;;23.42;;
58528;SDS011;44322;52.968;5.816;2023-09-08T08:15:08;33.75;;;24.20;;
58528;SDS011;44322;52.968;5.816;2023-09-08T08:17:38;32.45;;;24.17;;
58528;SDS011;44322;52.968;5.816;2023-09-08T08:20:07;33.03;;;23.85;;
58528;SDS011;44322;52.968;5.816;2023-09-08T08:22:36;34.13;;;24.65;;
58528;SDS011;44322;52.968;5.816;2023-09-08T08:25:02;30.77;;;23.00;;
58528;SDS011;44322;52.968;5.816;2023-09-08T08:27:31;31.83;;;24.45;;
58528;SDS011;44322;52.968;5.816;2023-09-08T08:29:57;31.90;;;23.63;;
58528;SDS011;44322;52.968;5.816;2023-09-08T08:32:26;32.53;;;23.98;;
58528;SDS011;44322;52.968;5.816;2023-09-08T08:34:52;33.83;;;25.55;;
58528;SDS011;44322;52.968;5.816;2023-09-08T08:37:18;37.40;;;25.67;;
58528;SDS011;44322;52.968;5.816;2023-09-08T08:39:43;34.45;;;23.98;;
58528;SDS011;44322;52.968;5.816;2023-09-08T08:42:09;37.78;;;25.42;;
58528;SDS011;44322;52.968;5.816;2023-09-08T08:44:36;35.67;;;26.65;;
58528;SDS011;44322;52.968;5.816;2023-09-08T08:47:03;35.40;;;26.67;;
58528;SDS011;44322;52.968;5.816;2023-09-08T08:49:30;35.22;;;25.67;;
58528;SDS011;44322;52.968;5.816;2023-09-08T08:51:56;33.05;;;23.23;;
58528;SDS011;44322;52.968;5.816;2023-09-08T08:54:23;33.67;;;22.97;;
58528;SDS011;44322;52.968;5.816;2023-09-08T08:56:49;25.20;;;20.92;;
58528;SDS011;44322;52.968;5.816;2023-09-08T08:59:15;28.67;;;18.85;;
58528;SDS011;44322;52.968;5.816;2023-09-08T09:01:41;23.60;;;19.08;;
58528;SDS011;44322;52.968;5.816;2023-09-08T09:04:07;21.88;;;17.33;;
58528;SDS011;44322;52.968;5.816;2023-09-08T09:06:33;22.98;;;16.20;;
58528;SDS011;44322;52.968;5.816;2023-09-08T09:08:59;21.73;;;17.05;;
58528;SDS011;44322;52.968;5.816;2023-09-08T09:11:25;17.73;;;14.23;;
58528;SDS011;44322;52.968;5.816;2023-09-08T09:13:50;18.98;;;14.77;;
58528;SDS011;44322;52.968;5.816;2023-09-08T09:16:16;20.20;;;15.50;;
58528;SDS011;44322;52.968;5.816;2023-09-08T09:18:58;15.82;;;13.93;;
58528;SDS011;44322;52.968;5.816;2023-09-08T09:21:24;18.33;;;15.48;;
58528;SDS011;44322;52.968;5.816;2023-09-08T09:24:06;18.38;;;14.45;;
58528;SDS011;44322;52.968;5.816;2023-09-08T09:26:32;17.73;;;13.95;;
58528;SDS011;44322;52.968;5.816;2023-09-08T09:28:58;18.38;;;14.65;;
58528;SDS011;44322;52.968;5.816;2023-09-08T09:31:24;17.27;;;15.40;;
58528;SDS011;44322;52.968;5.816;2023-09-08T09:34:01;16.65;;;14.88;;
58528;SDS011;44322;52.968;5.816;2023-09-08T09:36:31;18.48;;;14.25;;
58528;SDS011;44322;52.968;5.816;2023-09-08T09:39:00;17.90;;;14.40;;
58528;SDS011;44322;52.968;5.816;2023-09-08T09:41:29;17.63;;;14.32;;
58528;SDS011;44322;52.968;5.816;2023-09-08T09:43:56;16.83;;;13.70;;
58528;SDS011;44322;52.968;5.816;2023-09-08T09:46:22;15.00;;;12.82;;
58528;SDS011;44322;52.968;5.816;2023-09-08T09:48:51;15.32;;;13.70;;
58528;SDS011;44322;52.968;5.816;2023-09-08T09:51:21;19.52;;;13.00;;
58528;SDS011;44322;52.968;5.816;2023-09-08T09:53:49;16.85;;;13.80;;
58528;SDS011;44322;52.968;5.816;2023-09-08T09:56:15;15.23;;;12.23;;
58528;SDS011;44322;52.968;5.816;2023-09-08T09:58:42;12.48;;;11.10;;
58528;SDS011;44322;52.968;5.816;2023-09-08T10:01:08;14.50;;;11.50;;
58528;SDS011;44322;52.968;5.816;2023-09-08T10:03:37;14.45;;;11.38;;
58528;SDS011;44322;52.968;5.816;2023-09-08T10:06:04;15.15;;;12.18;;
58528;SDS011;44322;52.968;5.816;2023-09-08T10:08:30;17.63;;;12.10;;
58528;SDS011;44322;52.968;5.816;2023-09-08T10:10:58;13.52;;;11.27;;
58528;SDS011;44322;52.968;5.816;2023-09-08T10:13:28;14.50;;;11.00;;
58528;SDS011;44322;52.968;5.816;2023-09-08T10:15:57;14.23;;;11.82;;
58528;SDS011;44322;52.968;5.816;2023-09-08T10:18:23;14.20;;;12.23;;
58528;SDS011;44322;52.968;5.816;2023-09-08T10:20:49;15.25;;;11.98;;
58528;SDS011;44322;52.968;5.816;2023-09-08T10:25:50;18.70;;;12.30;;
58528;SDS011;44322;52.968;5.816;2023-09-08T10:28:21;14.60;;;11.68;;
58528;SDS011;44322;52.968;5.816;2023-09-08T10:30:47;14.63;;;10.73;;
58528;SDS011;44322;52.968;5.816;2023-09-08T10:33:13;11.07;;;9.98;;
58528;SDS011;44322;52.968;5.816;2023-09-08T10:35:39;9.95;;;8.80;;
58528;SDS011;44322;52.968;5.816;2023-09-08T10:40:50;10.05;;;8.63;;
58528;SDS011;44322;52.968;5.816;2023-09-08T10:43:17;10.23;;;8.75;;
58528;SDS011;44322;52.968;5.816;2023-09-08T10:45:45;9.77;;;8.65;;
58528;SDS011;44322;52.968;5.816;2023-09-08T10:48:11;9.10;;;8.18;;
58528;SDS011;44322;52.968;5.816;2023-09-08T10:50:40;11.00;;;9.10;;
58528;SDS011;44322;52.968;5.816;2023-09-08T10:55:46;9.95;;;9.00;;
58528;SDS011;44322;52.968;5.816;2023-09-08T10:58:20;8.55;;;7.70;;
58528;SDS011;44322;52.968;5.816;2023-09-08T11:00:47;9.60;;;8.60;;
58528;SDS011;44322;52.968;5.816;2023-09-08T11:03:25;10.48;;;8.38;;
58528;SDS011;44322;52.968;5.816;2023-09-08T11:05:55;9.75;;;8.80;;
58528;SDS011;44322;52.968;5.816;2023-09-08T11:08:21;11.88;;;9.13;;
58528;SDS011;44322;52.968;5.816;2023-09-08T11:10:47;9.43;;;8.38;;
58528;SDS011;44322;52.968;5.816;2023-09-08T11:13:13;9.65;;;8.65;;
58528;SDS011;44322;52.968;5.816;2023-09-08T11:15:38;10.18;;;9.15;;
58528;SDS011;44322;52.968;5.816;2023-09-08T11:18:04;9.50;;;8.50;;
58528;SDS011;44322;52.968;5.816;2023-09-08T11:22:56;8.70;;;7.77;;
58528;SDS011;44322;52.968;5.816;2023-09-08T11:25:22;8.15;;;7.35;;
58528;SDS011;44322;52.968;5.816;2023-09-08T11:27:48;8.23;;;7.35;;
58528;SDS011;44322;52.968;5.816;2023-09-08T11:30:15;9.48;;;7.90;;
58528;SDS011;44322;52.968;5.816;2023-09-08T11:32:41;9.30;;;8.40;;
58528;SDS011;44322;52.968;5.816;2023-09-08T11:35:07;8.70;;;7.55;;
58528;SDS011;44322;52.968;5.816;2023-09-08T11:37:37;9.45;;;8.20;;
58528;SDS011;44322;52.968;5.816;2023-09-08T11:40:09;9.27;;;8.38;;
58528;SDS011;44322;52.968;5.816;2023-09-08T11:42:40;9.18;;;6.95;;
58528;SDS011;44322;52.968;5.816;2023-09-08T11:45:14;9.88;;;8.15;;
58528;SDS011;44322;52.968;5.816;2023-09-08T11:47:43;10.18;;;7.40;;
58528;SDS011;44322;52.968;5.816;2023-09-08T11:50:09;8.77;;;7.68;;
58528;SDS011;44322;52.968;5.816;2023-09-08T11:52:49;10.67;;;8.47;;
58528;SDS011;44322;52.968;5.816;2023-09-08T11:55:15;13.05;;;8.23;;
58528;SDS011;44322;52.968;5.816;2023-09-08T11:57:42;7.68;;;6.97;;
58528;SDS011;44322;52.968;5.816;2023-09-08T12:00:09;9.43;;;7.45;;
58528;SDS011;44322;52.968;5.816;2023-09-08T12:02:39;9.05;;;8.00;;
58528;SDS011;44322;52.968;5.816;2023-09-08T12:05:05;10.35;;;7.63;;
58528;SDS011;44322;52.968;5.816;2023-09-08T12:07:31;7.45;;;6.70;;
58528;SDS011;44322;52.968;5.816;2023-09-08T12:09:57;9.80;;;6.85;;
58528;SDS011;44322;52.968;5.816;2023-09-08T12:14:50;8.88;;;7.25;;
58528;SDS011;44322;52.968;5.816;2023-09-08T12:17:16;7.60;;;6.90;;
58528;SDS011;44322;52.968;5.816;2023-09-08T12:19:43;7.40;;;6.70;;
58528;SDS011;44322;52.968;5.816;2023-09-08T12:22:08;7.53;;;6.82;;
58528;SDS011;44322;52.968;5.816;2023-09-08T12:27:15;8.48;;;6.97;;
58528;SDS011;44322;52.968;5.816;2023-09-08T12:29:50;8.65;;;7.22;;
58528;SDS011;44322;52.968;5.816;2023-09-08T12:32:20;8.73;;;6.45;;
58528;SDS011;44322;52.968;5.816;2023-09-08T12:34:46;7.45;;;6.72;;
58528;SDS011;44322;52.968;5.816;2023-09-08T12:37:12;7.67;;;6.87;;
58528;SDS011;44322;52.968;5.816;2023-09-08T12:39:38;7.40;;;6.70;;
58528;SDS011;44322;52.968;5.816;2023-09-08T12:42:04;7.70;;;6.90;;
58528;SDS011;44322;52.968;5.816;2023-09-08T12:44:30;8.03;;;6.87;;
58528;SDS011;44322;52.968;5.816;2023-09-08T12:46:55;7.50;;;6.75;;
58528;SDS011;44322;52.968;5.816;2023-09-08T12:49:21;7.15;;;6.03;;
58528;SDS011;44322;52.968;5.816;2023-09-08T12:51:46;8.03;;;6.50;;
58528;SDS011;44322;52.968;5.816;2023-09-08T12:54:12;8.83;;;6.27;;
58528;SDS011;44322;52.968;5.816;2023-09-08T12:56:37;7.03;;;6.33;;
58528;SDS011;44322;52.968;5.816;2023-09-08T12:59:03;7.90;;;6.63;;
58528;SDS011;44322;52.968;5.816;2023-09-08T13:01:29;7.60;;;6.63;;
58528;SDS011;44322;52.968;5.816;2023-09-08T13:03:54;8.00;;;6.17;;
58528;SDS011;44322;52.968;5.816;2023-09-08T13:06:20;9.17;;;6.23;;
58528;SDS011;44322;52.968;5.816;2023-09-08T13:08:45;6.70;;;6.07;;
58528;SDS011;44322;52.968;5.816;2023-09-08T13:11:11;7.87;;;6.47;;
58528;SDS011;44322;52.968;5.816;2023-09-08T13:13:36;7.00;;;6.07;;
58528;SDS011;44322;52.968;5.816;2023-09-08T13:16:02;9.07;;;6.50;;
58528;SDS011;44322;52.968;5.816;2023-09-08T13:18:28;6.80;;;6.10;;
58528;SDS011;44322;52.968;5.816;2023-09-08T13:20:56;9.00;;;6.43;;
58528;SDS011;44322;52.968;5.816;2023-09-08T13:23:21;7.20;;;6.43;;
58528;SDS011;44322;52.968;5.816;2023-09-08T13:25:47;10.40;;;6.83;;
58528;SDS011;44322;52.968;5.816;2023-09-08T13:28:12;7.80;;;5.87;;
58528;SDS011;44322;52.968;5.816;2023-09-08T13:30:38;7.77;;;6.80;;
58528;SDS011;44322;52.968;5.816;2023-09-08T13:33:03;8.10;;;6.70;;
58528;SDS011;44322;52.968;5.816;2023-09-08T13:35:29;7.90;;;7.10;;
58528;SDS011;44322;52.968;5.816;2023-09-08T13:37:55;7.47;;;6.70;;
58528;SDS011;44322;52.968;5.816;2023-09-08T13:40:20;7.20;;;6.60;;
58528;SDS011;44322;52.968;5.816;2023-09-08T13:42:46;7.37;;;6.43;;
58528;SDS011;44322;52.968;5.816;2023-09-08T13:45:12;7.43;;;6.70;;
58528;SDS011;44322;52.968;5.816;2023-09-08T13:47:38;8.03;;;6.87;;
58528;SDS011;44322;52.968;5.816;2023-09-08T13:50:03;7.67;;;6.97;;
58528;SDS011;44322;52.968;5.816;2023-09-08T13:52:30;8.40;;;7.20;;
58528;SDS011;44322;52.968;5.816;2023-09-08T13:54:55;8.50;;;6.10;;
58528;SDS011;44322;52.968;5.816;2023-09-08T13:57:21;8.33;;;6.73;;
58528;SDS011;44322;52.968;5.816;2023-09-08T13:59:48;7.93;;;7.07;;
58528;SDS011;44322;52.968;5.816;2023-09-08T14:02:14;8.32;;;7.50;;
58528;SDS011;44322;52.968;5.816;2023-09-08T14:04:40;7.33;;;6.33;;
58528;SDS011;44322;52.968;5.816;2023-09-08T14:07:07;8.70;;;7.32;;
58528;SDS011;44322;52.968;5.816;2023-09-08T14:11:59;10.70;;;6.47;;
58528;SDS011;44322;52.968;5.816;2023-09-08T14:14:24;7.73;;;6.33;;
58528;SDS011;44322;52.968;5.816;2023-09-08T14:16:50;7.57;;;6.37;;
58528;SDS011;44322;52.968;5.816;2023-09-08T14:19:16;8.70;;;6.60;;
58528;SDS011;44322;52.968;5.816;2023-09-08T14:21:41;7.83;;;6.57;;
58528;SDS011;44322;52.968;5.816;2023-09-08T14:24:07;7.43;;;6.07;;
58528;SDS011;44322;52.968;5.816;2023-09-08T14:26:32;10.83;;;6.90;;
58528;SDS011;44322;52.968;5.816;2023-09-08T14:28:58;7.07;;;6.47;;
58528;SDS011;44322;52.968;5.816;2023-09-08T14:31:24;8.67;;;7.00;;
58528;SDS011;44322;52.968;5.816;2023-09-08T14:33:49;7.77;;;7.03;;
58528;SDS011;44322;52.968;5.816;2023-09-08T14:36:18;6.88;;;6.28;;
58528;SDS011;44322;52.968;5.816;2023-09-08T14:38:44;8.20;;;6.65;;
58528;SDS011;44322;52.968;5.816;2023-09-08T14:41:10;7.72;;;6.97;;
58528;SDS011;44322;52.968;5.816;2023-09-08T14:43:35;6.73;;;6.13;;
58528;SDS011;44322;52.968;5.816;2023-09-08T14:46:01;7.43;;;6.80;;